Capitol Logistics 512


RJAA
Tokyo-Narita International Airport
Tokyo, JP
RKSI
Incheon International Airport
Seoul, KR

Activity Log

Date Flight Route Aircraft Duration
08/31/2020 CPX512 SOUKA Y16 SAPRA Y685 SEL SEL1T B763 2h 14m
02/09/2019 CPX712 CHINO Y16 SAPRA G585 CUN B763 2h 25m

Route Details

Aircraft Information
Primary: Boeing 767-300BDSF
Backup: Not Available
Route Data
Distance: 680nm
Sched. Duration: 2h 00m
Avg. Duration: 2h 20m (+21m)
Times Flown: 2
Recm'd Route: SOUKA Y16 SAPRA Y685 SEL SEL1T
Planned Altitude: 38,000ft
Origin Wx: RJAA 251000Z 22003KT 9999 FEW030 11/08 Q1013 NOSIG
Dest. Wx: RKSI 251000Z 29007KT CAVOK 15/10 Q1020 NOSIG
Notes:

Financial History
Total Freight: 245,137lbs
Average Load: 122,569lbs/flt
Fuel Used: 56,146lbs
Avg. Fuel Used: 28,073lbs/flt
Fuel Expense: $44,917
Avg. Fuel Expense: $22,458
Avg. Fuel Cost: $0.80/lbs
Total Gross Income: $257,316
Pilot Pay: $468
Total Expenses: $27,894
Total Revenue: $183,410
Average Revenue: $128,658.00